DENVER INTL

KDEN (DEN)
Denver, Colorado
Towered

Vatsim Metar:
KDEN 271729Z 36006KT 1/4SM R35L/4500VP6000FT SN FZFG VV010 M03/M05 A3036 RMK AO2 SFC VIS 1/2 P0004 T10331050

No ATC Online

Traffic

Inbound:
Ident
Type
Name
ETA
Phase
SWA814
B738
Lee Steenberg KDEN
Deplaning
UAL647
B77W
Sean OB KTOA
18:43 Z
Climb
UAL407
B772
Ethan Title CYHZ
19:40 Z
Taxiing Out
DAL962
B739
Jon E KDTW
20:06 Z
Climb
SWA204
B738
Alwen Biesum TNCA
20:47 Z
Climb

Outbound:
Ident
Type
Name
Destination
Phase
AFR247
A333
Bruno LFPG
PABR
Boarding
UAL1103
B738
Bob Klemm KMIA
KBOS
Climb
UAL646
B788
Wolfgang Ferber EDDF
KSFO
Climb

SIDs

STARS

Alternate Minimums

Hot Spots